Time;durP1;ratioP1;P1;durP2;ratioP2;P2;SDS_P1;SDS_P2;PMS_P1;PMS_P2;Temp;Humidity;BMP_temperature;BMP_pressure;BME280_temperature;BME280_humidity;BME280_pressure;Samples;Min_cycle;Max_cycle;Signal;HPM_P1;HPM_P2
2022/09/04 00:02:21;;;;;;;2.15;1.90;;;19.40;99.90;;;;;;4884940;29;20207;-65
2022/09/04 00:05:06;;;;;;;2.70;2.33;;;19.40;99.90;;;;;;4936734;29;20176;-66
2022/09/04 00:08:00;;;;;;;3.33;2.40;;;19.40;99.90;;;;;;4936129;29;20314;-66
2022/09/04 00:10:36;;;;;;;2.53;2.15;;;19.40;99.90;;;;;;4954421;28;20213;-67
2022/09/04 00:13:30;;;;;;;2.70;2.17;;;19.40;99.90;;;;;;4933720;29;20187;-68
2022/09/04 00:16:08;;;;;;;2.35;2.15;;;19.40;99.90;;;;;;4945515;29;20205;-67
2022/09/04 00:19:08;;;;;;;2.58;2.20;;;19.40;99.90;;;;;;4936448;29;20181;-66
2022/09/04 00:21:52;;;;;;;3.75;2.33;;;19.40;99.90;;;;;;4935402;29;20272;-67
2022/09/04 00:24:36;;;;;;;2.50;2.30;;;19.40;99.90;;;;;;4952548;29;20173;-67
2022/09/04 00:27:12;;;;;;;2.88;2.50;;;19.40;99.90;;;;;;4934057;29;20169;-67
2022/09/04 00:30:04;;;;;;;2.38;2.17;;;19.40;99.90;;;;;;4925711;29;20205;-67
2022/09/04 00:32:48;;;;;;;2.50;2.22;;;19.40;99.90;;;;;;4934203;29;20181;-68
2022/09/04 00:35:23;;;;;;;3.20;2.58;;;19.40;99.90;;;;;;4949080;29;20187;-66
2022/09/04 00:38:07;;;;;;;4.05;2.88;;;19.40;99.90;;;;;;4949498;29;20199;-67
2022/09/04 00:40:32;;;;;;;3.17;2.67;;;19.40;99.90;;;;;;4927888;29;20182;-67
2022/09/04 00:43:13;;;;;;;3.92;3.00;;;19.30;99.90;;;;;;4934065;29;20201;-67
2022/09/04 00:45:51;;;;;;;3.78;3.05;;;19.30;99.90;;;;;;4932709;29;20181;-67
2022/09/04 00:48:36;;;;;;;4.32;3.13;;;19.30;99.90;;;;;;4932499;29;20200;-67
2022/09/04 00:51:20;;;;;;;3.80;3.20;;;19.30;99.90;;;;;;4933557;29;20209;-67
2022/09/04 00:54:16;;;;;;;3.80;3.40;;;19.20;99.90;;;;;;4938317;29;20182;-67
2022/09/04 00:56:58;;;;;;;3.28;2.97;;;19.20;99.90;;;;;;4938337;29;20229;-68
2022/09/04 01:00:00;;;;;;;3.67;3.15;;;19.20;99.90;;;;;;4939773;29;20313;-67
2022/09/04 01:02:37;;;;;;;5.78;3.20;;;19.10;99.90;;;;;;4943095;29;20232;-67
2022/09/04 01:05:31;;;;;;;4.22;3.50;;;19.10;99.90;;;;;;4955812;29;20184;-67
2022/09/04 01:08:39;;;;;;;4.30;3.90;;;19.10;99.90;;;;;;4910351;29;20224;-67
2022/09/04 01:11:26;;;;;;;4.43;3.75;;;19.10;99.90;;;;;;4923318;29;20253;-67
2022/09/04 01:14:16;;;;;;;4.10;3.60;;;19.00;99.90;;;;;;4934319;29;20189;-67
2022/09/04 01:16:58;;;;;;;5.97;3.80;;;19.10;99.90;;;;;;4951704;29;20186;-66
2022/09/04 01:19:51;;;;;;;4.70;3.75;;;19.00;99.90;;;;;;4956732;29;20184;-67
2022/09/04 01:22:49;;;;;;;6.22;4.25;;;19.00;99.90;;;;;;4939577;29;20184;-66
2022/09/04 01:25:29;;;;;;;4.28;3.88;;;19.00;99.90;;;;;;4937777;29;20198;-67
2022/09/04 01:28:12;;;;;;;5.57;4.30;;;19.00;99.90;;;;;;4950077;29;20177;-67
2022/09/04 01:31:00;;;;;;;5.40;4.40;;;19.00;99.90;;;;;;4956136;28;20208;-67
2022/09/04 01:34:14;;;;;;;5.57;4.60;;;18.90;99.90;;;;;;4953514;29;20174;-67
2022/09/04 01:36:55;;;;;;;4.75;4.25;;;18.90;99.90;;;;;;4895457;29;20198;-67
2022/09/04 01:39:24;;;;;;;4.35;3.95;;;18.80;99.90;;;;;;4928040;29;20227;-66
2022/09/04 01:42:13;;;;;;;5.05;4.38;;;18.80;99.90;;;;;;4942510;29;20181;-66
2022/09/04 01:44:43;;;;;;;5.90;4.70;;;18.80;99.90;;;;;;4939533;29;20181;-68
2022/09/04 01:47:09;;;;;;;8.18;4.50;;;18.80;99.90;;;;;;4939312;29;20185;-67
2022/09/04 01:49:37;;;;;;;5.10;4.38;;;18.80;99.90;;;;;;4938837;29;20214;-67
2022/09/04 01:52:24;;;;;;;4.40;4.00;;;18.80;99.90;;;;;;4955733;29;20261;-66
2022/09/04 01:55:15;;;;;;;4.75;4.22;;;18.80;99.90;;;;;;4952275;29;20181;-66
2022/09/04 01:58:26;;;;;;;4.30;3.88;;;18.80;99.90;;;;;;4933007;29;20188;-67
2022/09/04 02:01:14;;;;;;;4.88;4.10;;;18.80;99.90;;;;;;4918311;29;20189;-67
2022/09/04 02:03:45;;;;;;;4.65;3.85;;;18.80;99.90;;;;;;4930711;29;20264;-67
2022/09/04 02:06:22;;;;;;;4.85;4.32;;;18.80;99.90;;;;;;4941698;29;20224;-67
2022/09/04 02:09:07;;;;;;;4.32;3.92;;;18.80;99.90;;;;;;4938731;29;20220;-67
2022/09/04 02:11:32;;;;;;;6.85;4.38;;;18.80;99.90;;;;;;4939751;29;20173;-65
2022/09/04 02:14:26;;;;;;;5.68;4.18;;;18.80;99.90;;;;;;4928198;29;20194;-67
2022/09/04 02:17:17;;;;;;;4.72;4.00;;;18.80;99.90;;;;;;4932701;29;20215;-65
2022/09/04 02:19:58;;;;;;;4.40;4.00;;;18.80;99.90;;;;;;4930129;29;20189;-67
2022/09/04 02:22:40;;;;;;;4.22;3.70;;;18.80;99.90;;;;;;4940004;29;20182;-67
2022/09/04 02:25:15;;;;;;;4.47;3.75;;;18.70;99.90;;;;;;4939758;29;20193;-65
2022/09/04 02:28:02;;;;;;;3.90;3.42;;;18.70;99.90;;;;;;4947655;29;20294;-66
2022/09/04 02:30:47;;;;;;;4.15;3.70;;;18.80;99.90;;;;;;4947801;29;20205;-66
2022/09/04 02:33:23;;;;;;;4.10;3.70;;;18.70;99.90;;;;;;4935578;29;20174;-67
2022/09/04 02:36:09;;;;;;;3.80;3.40;;;18.70;99.90;;;;;;4937858;29;20200;-66
2022/09/04 02:39:01;;;;;;;4.35;3.50;;;18.70;99.90;;;;;;4937727;29;20189;-67
2022/09/04 02:41:49;;;;;;;3.75;3.35;;;18.70;99.90;;;;;;4936069;29;20221;-67
2022/09/04 02:44:46;;;;;;;3.63;3.33;;;18.70;99.90;;;;;;4934855;29;20178;-65
2022/09/04 02:47:46;;;;;;;3.90;3.30;;;18.60;99.90;;;;;;4942437;29;20228;-67
2022/09/04 02:50:18;;;;;;;3.85;3.08;;;18.60;99.90;;;;;;4952717;29;20213;-67
2022/09/04 02:52:56;;;;;;;3.85;3.28;;;18.60;99.90;;;;;;4935054;29;20174;-67
2022/09/04 02:55:30;;;;;;;3.40;3.10;;;18.60;99.90;;;;;;4944779;29;20280;-67
2022/09/04 02:58:38;;;;;;;3.35;3.03;;;18.60;99.90;;;;;;4951425;29;20177;-67
2022/09/04 03:01:04;;;;;;;3.97;3.05;;;18.50;99.90;;;;;;4939171;29;20212;-66
2022/09/04 03:04:01;;;;;;;4.47;3.65;;;18.50;99.90;;;;;;4943340;29;20248;-65
2022/09/04 03:06:56;;;;;;;4.20;3.20;;;18.50;99.90;;;;;;4923199;29;20186;-67
2022/09/04 03:09:31;;;;;;;4.07;3.30;;;18.50;99.90;;;;;;4937203;29;20213;-67
2022/09/04 03:12:04;;;;;;;3.88;3.42;;;18.50;99.90;;;;;;4934098;29;20187;-66
2022/09/04 03:14:51;;;;;;;3.75;3.25;;;18.50;99.90;;;;;;4943010;29;20202;-66
2022/09/04 03:17:45;;;;;;;3.95;3.35;;;18.50;99.90;;;;;;4924451;29;20220;-66
2022/09/04 03:20:16;;;;;;;4.20;3.50;;;18.40;99.90;;;;;;4953862;28;20186;-67
2022/09/04 03:23:05;;;;;;;4.05;3.50;;;18.40;99.90;;;;;;4937243;29;20193;-67
2022/09/04 03:25:49;;;;;;;4.60;3.10;;;18.40;99.90;;;;;;4939903;29;20218;-64
2022/09/04 03:28:29;;;;;;;3.85;3.20;;;18.40;99.90;;;;;;4954544;29;20204;-66
2022/09/04 03:31:22;;;;;;;3.80;3.08;;;18.40;99.90;;;;;;4934536;29;20301;-67
2022/09/04 03:34:03;;;;;;;4.15;3.40;;;18.40;99.90;;;;;;4936807;29;20177;-67
2022/09/04 03:36:53;;;;;;;3.80;3.20;;;18.40;99.90;;;;;;4930588;29;20200;-67
2022/09/04 03:39:43;;;;;;;4.07;3.15;;;18.40;99.90;;;;;;4952997;29;20188;-67
2022/09/04 03:42:15;;;;;;;3.55;3.25;;;18.40;99.90;;;;;;4937248;29;20260;-67
2022/09/04 03:45:14;;;;;;;3.72;3.10;;;18.30;99.90;;;;;;4952419;29;20205;-67
2022/09/04 03:47:58;;;;;;;4.30;3.35;;;18.30;99.90;;;;;;4953617;29;20169;-66
2022/09/04 03:50:46;;;;;;;4.10;3.47;;;18.30;99.90;;;;;;4934842;29;20284;-66
2022/09/04 03:53:26;;;;;;;4.05;3.33;;;18.30;99.90;;;;;;4973235;23;20244;-66
2022/09/04 03:56:18;;;;;;;3.78;3.22;;;18.20;99.90;;;;;;4948020;29;20197;-66
2022/09/04 03:58:49;;;;;;;3.80;3.08;;;18.20;99.90;;;;;;4936013;29;20201;-66
2022/09/04 04:01:25;;;;;;;3.88;3.35;;;18.20;99.90;;;;;;4944374;29;20260;-67
2022/09/04 04:04:08;;;;;;;3.85;3.47;;;18.20;99.90;;;;;;4945810;29;20173;-67
2022/09/04 04:07:06;;;;;;;4.32;3.42;;;18.20;99.90;;;;;;4936743;29;20280;-66
2022/09/04 04:09:46;;;;;;;3.80;3.40;;;18.10;99.90;;;;;;4937685;29;20288;-67
2022/09/04 04:12:42;;;;;;;3.88;3.40;;;18.10;99.90;;;;;;4947754;29;20270;-67
2022/09/04 04:15:16;;;;;;;3.55;3.10;;;18.10;99.90;;;;;;4929710;29;20219;-66
2022/09/04 04:17:57;;;;;;;4.70;3.55;;;18.00;99.90;;;;;;4929880;29;20181;-67
2022/09/04 04:20:41;;;;;;;3.65;3.35;;;18.00;99.90;;;;;;4936066;29;20264;-67
2022/09/04 04:23:16;;;;;;;4.10;3.42;;;18.00;99.90;;;;;;4937939;29;20271;-67
2022/09/04 04:26:20;;;;;;;3.97;3.58;;;18.00;99.90;;;;;;4936871;29;20177;-67
2022/09/04 04:29:15;;;;;;;4.85;3.60;;;18.00;99.90;;;;;;4946945;29;20211;-67
2022/09/04 04:31:43;;;;;;;4.13;3.72;;;18.00;99.90;;;;;;4937247;29;20192;-64
2022/09/04 04:34:14;;;;;;;4.85;4.15;;;17.90;99.90;;;;;;4936981;29;20209;-67
2022/09/04 04:36:44;;;;;;;5.05;4.18;;;17.90;99.90;;;;;;4939822;29;20189;-69
2022/09/04 04:39:42;;;;;;;5.50;4.53;;;17.90;99.90;;;;;;4940145;29;20193;-66
2022/09/04 04:42:17;;;;;;;5.32;4.03;;;17.90;99.90;;;;;;4940289;29;20197;-67
2022/09/04 04:47:41;;;;;;;4.75;3.40;;;17.90;99.90;;;;;;4942072;29;20195;-66
2022/09/04 04:50:20;;;;;;;4.53;3.80;;;17.90;99.90;;;;;;4940622;29;20256;-62
2022/09/04 04:53:08;;;;;;;4.82;4.28;;;17.90;99.90;;;;;;4937067;29;20189;-67
2022/09/04 04:55:56;;;;;;;6.47;4.00;;;17.90;99.90;;;;;;4944361;29;20292;-66
2022/09/04 04:58:52;;;;;;;4.10;3.67;;;17.90;99.90;;;;;;4932198;29;20181;-66
2022/09/04 05:01:43;;;;;;;4.40;4.00;;;17.90;99.90;;;;;;4952615;29;20174;-65
2022/09/04 05:04:41;;;;;;;4.88;4.18;;;17.90;99.90;;;;;;4933345;29;20192;-66
2022/09/04 05:07:34;;;;;;;6.68;4.55;;;17.90;99.90;;;;;;4961496;28;20348;-66
2022/09/04 05:10:09;;;;;;;6.00;4.72;;;17.90;99.90;;;;;;4936669;29;20206;-66
2022/09/04 05:12:52;;;;;;;5.50;4.93;;;17.90;99.90;;;;;;4954281;29;20460;-66
2022/09/04 05:15:47;;;;;;;6.22;4.97;;;17.90;99.90;;;;;;4939657;29;20169;-66
2022/09/04 05:18:24;;;;;;;5.20;4.70;;;17.90;99.90;;;;;;4948440;29;20292;-66
2022/09/04 05:21:10;;;;;;;5.57;4.93;;;17.90;99.90;;;;;;4934410;29;20192;-66
2022/09/04 05:23:41;;;;;;;5.53;4.70;;;17.90;99.90;;;;;;4931928;29;20189;-66
2022/09/04 05:26:20;;;;;;;5.45;4.90;;;17.90;99.90;;;;;;4936239;29;20289;-66
2022/09/04 05:28:59;;;;;;;5.05;4.25;;;17.90;99.90;;;;;;4937288;29;20163;-66
2022/09/04 05:31:54;;;;;;;5.05;4.50;;;17.90;99.90;;;;;;4939419;29;20223;-66
2022/09/04 05:34:41;;;;;;;5.63;4.65;;;18.00;99.90;;;;;;4939676;29;20239;-67
2022/09/04 05:37:12;;;;;;;5.20;4.55;;;18.00;99.90;;;;;;4937139;29;20181;-66
2022/09/04 05:40:08;;;;;;;6.57;4.57;;;18.00;99.90;;;;;;4925899;29;20184;-66
2022/09/04 05:42:40;;;;;;;5.18;4.53;;;18.00;99.90;;;;;;4920025;29;20273;-67
2022/09/04 05:45:37;;;;;;;5.50;4.75;;;18.00;99.90;;;;;;4960821;28;20268;-67
2022/09/04 05:48:23;;;;;;;5.32;4.45;;;18.00;99.90;;;;;;4946577;29;20206;-64
2022/09/04 05:50:54;;;;;;;6.25;4.75;;;18.00;99.90;;;;;;4938040;29;20193;-66
2022/09/04 05:53:32;;;;;;;5.70;4.63;;;18.10;99.90;;;;;;4940399;29;20293;-66
2022/09/04 05:56:24;;;;;;;5.30;4.72;;;18.10;99.90;;;;;;4942049;29;20177;-66
2022/09/04 05:59:20;;;;;;;4.72;4.22;;;18.10;99.90;;;;;;4930069;29;20213;-65
2022/09/04 06:02:23;;;;;;;4.50;4.10;;;18.10;99.90;;;;;;4951420;29;20181;-67
2022/09/04 06:05:39;;;;;;;4.43;3.97;;;18.10;99.90;;;;;;4929784;29;20252;-66
2022/09/04 06:08:13;;;;;;;4.65;3.65;;;18.20;99.90;;;;;;4896491;29;20194;-66
2022/09/04 06:11:01;;;;;;;4.45;3.97;;;18.20;99.90;;;;;;4939522;29;20264;-66
2022/09/04 06:14:00;;;;;;;4.10;3.70;;;18.30;99.90;;;;;;4938857;29;20264;-67
2022/09/04 06:16:34;;;;;;;4.70;4.00;;;18.30;99.90;;;;;;4939381;29;20215;-64
2022/09/04 06:19:12;;;;;;;4.43;4.03;;;18.40;99.90;;;;;;4938642;29;20295;-66
2022/09/04 06:21:40;;;;;;;4.25;3.83;;;18.40;99.90;;;;;;4938320;29;20181;-65
2022/09/04 06:24:09;;;;;;;4.22;3.80;;;18.40;99.90;;;;;;4932758;29;20268;-66
2022/09/04 06:26:59;;;;;;;4.03;3.63;;;18.50;99.90;;;;;;4938633;29;20311;-66
2022/09/04 06:29:42;;;;;;;4.10;3.67;;;18.50;99.90;;;;;;4938085;29;20220;-65
2022/09/04 06:32:22;;;;;;;3.55;3.25;;;18.60;99.90;;;;;;4951733;29;20201;-66
2022/09/04 06:35:08;;;;;;;6.18;4.65;;;18.60;99.90;;;;;;4946856;29;20232;-66
2022/09/04 06:37:55;;;;;;;4.60;4.00;;;18.70;99.90;;;;;;4939474;29;20178;-66
2022/09/04 06:40:24;;;;;;;5.78;4.30;;;18.70;99.90;;;;;;4950645;29;20192;-66
2022/09/04 06:43:26;;;;;;;5.18;4.50;;;18.80;99.90;;;;;;4937994;29;20192;-66
2022/09/04 06:46:20;;;;;;;5.40;4.90;;;18.80;99.90;;;;;;4912750;29;20228;-66
2022/09/04 06:49:08;;;;;;;5.85;4.85;;;18.90;99.90;;;;;;4931419;29;20181;-65
2022/09/04 06:52:07;;;;;;;7.22;4.93;;;18.90;99.90;;;;;;4937783;29;20275;-67
2022/09/04 06:55:07;;;;;;;6.68;5.63;;;19.00;99.90;;;;;;4951700;28;20186;-66
2022/09/04 06:57:51;;;;;;;6.57;5.45;;;19.00;99.90;;;;;;4931604;29;20220;-66
2022/09/04 07:00:18;;;;;;;6.05;5.43;;;19.00;99.90;;;;;;4938924;29;20209;-67
2022/09/04 07:02:59;;;;;;;7.60;5.10;;;19.10;99.90;;;;;;4952241;29;20217;-67
2022/09/04 07:05:43;;;;;;;5.15;4.65;;;19.10;99.90;;;;;;4937612;29;20212;-67
2022/09/04 07:08:22;;;;;;;6.43;5.68;;;19.20;99.90;;;;;;4931169;29;20200;-68
2022/09/04 07:10:51;;;;;;;5.20;4.70;;;19.20;99.90;;;;;;4937576;29;20209;-68
2022/09/04 07:13:22;;;;;;;5.72;5.05;;;19.20;99.90;;;;;;4937328;29;20181;-67
2022/09/04 07:16:34;;;;;;;6.05;5.18;;;19.30;99.90;;;;;;4936967;29;20178;-68
2022/09/04 07:19:19;;;;;;;5.07;4.03;;;19.40;99.90;;;;;;4940113;29;20539;-67
2022/09/04 07:22:17;;;;;;;4.20;3.65;;;19.40;99.90;;;;;;4936595;29;20192;-67
2022/09/04 07:25:02;;;;;;;4.50;3.97;;;19.50;99.90;;;;;;4945762;29;20194;-67
2022/09/04 07:27:54;;;;;;;4.93;4.32;;;19.50;99.90;;;;;;4953614;29;20185;-68
2022/09/04 07:30:24;;;;;;;5.50;4.63;;;19.60;99.90;;;;;;4924211;29;20218;-67
2022/09/04 07:33:14;;;;;;;5.00;4.10;;;19.60;99.90;;;;;;4936585;29;20174;-67
2022/09/04 07:35:53;;;;;;;4.78;3.80;;;19.70;99.90;;;;;;4936069;29;20220;-67
2022/09/04 07:38:27;;;;;;;5.75;4.25;;;19.80;99.90;;;;;;4936765;29;20177;-67
2022/09/04 07:41:03;;;;;;;4.40;3.88;;;19.90;99.90;;;;;;4937282;29;20260;-67
2022/09/04 07:43:51;;;;;;;6.18;5.13;;;19.90;99.90;;;;;;4951971;29;20204;-66
2022/09/04 07:47:11;;;;;;;5.70;5.05;;;20.00;99.90;;;;;;4953332;28;20182;-67
2022/09/04 07:49:56;;;;;;;6.05;5.43;;;20.00;99.90;;;;;;4911329;29;20206;-73
2022/09/04 07:52:31;;;;;;;5.85;4.70;;;20.10;99.90;;;;;;4920755;29;20208;-71
2022/09/04 07:55:06;;;;;;;4.82;4.25;;;20.20;99.90;;;;;;4941110;29;20272;-72
2022/09/04 07:57:49;;;;;;;5.15;4.40;;;20.20;99.90;;;;;;4934391;29;20340;-71
2022/09/04 08:00:24;;;;;;;5.10;4.30;;;20.30;99.90;;;;;;4949981;28;20294;-72
2022/09/04 08:03:12;;;;;;;6.63;4.97;;;20.30;99.90;;;;;;4933305;29;20209;-72
2022/09/04 08:05:48;;;;;;;4.80;4.30;;;20.40;99.90;;;;;;4937458;29;20181;-70
2022/09/04 08:08:35;;;;;;;5.03;4.53;;;20.50;99.90;;;;;;4941750;29;20188;-69
2022/09/04 08:11:22;;;;;;;6.10;4.30;;;20.60;99.90;;;;;;4949629;29;20269;-71
2022/09/04 08:14:12;;;;;;;5.07;4.32;;;20.60;99.90;;;;;;4953139;29;20187;-70
2022/09/04 08:17:04;;;;;;;7.57;4.70;;;20.70;99.90;;;;;;4934928;29;20212;-72
2022/09/04 08:19:48;;;;;;;5.05;4.43;;;20.80;99.90;;;;;;4936648;29;20192;-69
2022/09/04 08:22:46;;;;;;;5.40;4.57;;;20.80;99.90;;;;;;4936897;29;20177;-70
2022/09/04 08:25:58;;;;;;;7.28;4.00;;;20.90;99.90;;;;;;4919894;29;20275;-71
2022/09/04 08:29:01;;;;;;;4.20;3.80;;;21.00;99.90;;;;;;4918076;29;20194;-71
2022/09/04 08:31:31;;;;;;;4.07;3.67;;;21.10;99.90;;;;;;4922488;29;20260;-72
2022/09/04 08:34:28;;;;;;;4.55;4.15;;;21.20;99.90;;;;;;4937168;29;20268;-71
2022/09/04 08:37:18;;;;;;;4.43;4.03;;;21.30;99.90;;;;;;4933526;29;20217;-74
2022/09/04 08:39:57;;;;;;;6.57;4.93;;;21.40;99.90;;;;;;4928637;29;20181;-72
2022/09/04 08:42:38;;;;;;;4.53;4.13;;;21.50;99.90;;;;;;4937155;29;20204;-72
2022/09/04 08:45:33;;;;;;;4.32;3.92;;;21.60;99.90;;;;;;4917919;29;20182;-73
2022/09/04 08:48:10;;;;;;;5.70;4.50;;;21.60;99.90;;;;;;4930146;29;20201;-72
2022/09/04 08:50:43;;;;;;;5.15;3.83;;;21.70;99.90;;;;;;4932963;29;20209;-69
2022/09/04 08:53:30;;;;;;;4.32;3.58;;;21.80;99.90;;;;;;4933719;29;20190;-71
2022/09/04 08:56:08;;;;;;;5.90;4.78;;;21.90;99.90;;;;;;4917861;29;20190;-71
2022/09/04 08:59:16;;;;;;;4.80;4.20;;;22.10;99.90;;;;;;4936472;29;20536;-71
2022/09/04 09:02:06;;;;;;;3.35;3.05;;;22.20;99.90;;;;;;4951991;29;20216;-71
2022/09/04 09:05:17;;;;;;;4.38;3.97;;;22.30;99.90;;;;;;4936990;29;20169;-70
2022/09/04 09:08:14;;;;;;;3.63;3.30;;;22.40;99.90;;;;;;4859846;29;20237;-70
2022/09/04 09:11:25;;;;;;;3.55;3.22;;;22.50;99.90;;;;;;4898336;29;20244;-72
2022/09/04 09:14:27;;;;;;;3.25;2.95;;;22.70;99.90;;;;;;4933484;29;20209;-72
2022/09/04 09:17:11;;;;;;;3.70;3.28;;;22.80;99.90;;;;;;4918837;29;20182;-73
2022/09/04 09:20:05;;;;;;;3.22;2.92;;;22.90;99.90;;;;;;4952975;28;20223;-72
2022/09/04 09:22:51;;;;;;;2.85;2.50;;;23.00;99.90;;;;;;4949416;29;20261;-72
2022/09/04 09:25:48;;;;;;;2.70;2.50;;;23.10;99.90;;;;;;4949888;29;20173;-74
2022/09/04 09:28:31;;;;;;;2.80;2.40;;;23.20;99.90;;;;;;4941879;29;20225;-72
2022/09/04 09:31:16;;;;;;;3.13;2.40;;;23.30;99.90;;;;;;4940717;29;20220;-73
2022/09/04 09:34:19;;;;;;;3.30;2.85;;;23.40;99.90;;;;;;4940026;29;20243;-71
2022/09/04 09:37:04;;;;;;;3.55;2.42;;;23.60;99.90;;;;;;4947248;29;20240;-69
2022/09/04 09:39:56;;;;;;;2.38;2.17;;;23.70;99.90;;;;;;4939714;29;20209;-71
2022/09/04 09:42:47;;;;;;;2.60;2.17;;;23.80;99.90;;;;;;4934636;29;20483;-73
2022/09/04 09:45:15;;;;;;;2.67;2.30;;;23.90;99.90;;;;;;4927350;29;20196;-75
2022/09/04 09:47:59;;;;;;;2.53;1.85;;;24.00;99.90;;;;;;4945248;29;20188;-75
2022/09/04 09:50:46;;;;;;;2.40;1.98;;;24.10;99.90;;;;;;4938594;29;20259;-74
2022/09/04 09:53:48;;;;;;;2.10;1.90;;;24.20;99.90;;;;;;4935626;29;20217;-73
2022/09/04 09:56:25;;;;;;;2.03;1.77;;;24.40;99.90;;;;;;4936152;29;20316;-77
2022/09/04 09:59:15;;;;;;;2.33;1.75;;;24.70;99.90;;;;;;4924999;29;20206;-75
2022/09/04 10:02:19;;;;;;;1.63;1.48;;;25.30;99.90;;;;;;4920328;29;20198;-76
2022/09/04 10:05:26;;;;;;;1.55;1.45;;;26.00;99.90;;;;;;4946616;29;20197;-75
2022/09/04 10:08:34;;;;;;;2.38;1.50;;;26.90;99.90;;;;;;4934815;29;20213;-73
2022/09/04 10:11:27;;;;;;;1.80;1.50;;;27.60;99.90;;;;;;4935374;29;20214;-73
2022/09/04 10:14:33;;;;;;;2.17;1.60;;;28.20;99.90;;;;;;4920195;29;20180;-77
2022/09/04 10:17:21;;;;;;;1.42;1.30;;;28.80;99.90;;;;;;4943480;29;20174;-73
2022/09/04 10:20:08;;;;;;;1.55;1.45;;;29.10;99.90;;;;;;4938679;29;20189;-76
2022/09/04 10:22:43;;;;;;;1.50;1.10;;;29.50;99.90;;;;;;4950368;29;20224;-77
2022/09/04 10:25:14;;;;;;;1.30;1.20;;;29.80;99.90;;;;;;4949434;29;20192;-78
2022/09/04 10:28:14;;;;;;;2.65;1.45;;;30.10;99.90;;;;;;4938879;29;20204;-78
2022/09/04 10:31:17;;;;;;;1.67;1.50;;;30.30;99.90;;;;;;4933701;29;20193;-80
2022/09/04 10:34:02;;;;;;;2.85;1.30;;;30.50;99.90;;;;;;4939314;29;20245;-84
2022/09/04 10:36:48;;;;;;;1.40;1.30;;;30.70;99.90;;;;;;4940038;29;20200;-74
2022/09/04 10:43:08;;;;;;;1.15;1.00;;;31.00;99.90;;;;;;4935507;29;20537;-77
2022/09/04 10:46:00;;;;;;;2.13;1.10;;;31.10;99.90;;;;;;4937924;29;20184;-76
2022/09/04 10:48:37;;;;;;;1.30;1.17;;;31.10;99.90;;;;;;4929975;29;20197;-74
2022/09/04 10:51:48;;;;;;;2.28;1.40;;;31.00;99.90;;;;;;4938701;29;20205;-75
2022/09/04 10:54:33;;;;;;;1.17;0.90;;;31.10;99.90;;;;;;4946495;29;20201;-71
2022/09/04 10:57:17;;;;;;;1.73;1.00;;;31.20;99.90;;;;;;4960195;28;20165;-71
2022/09/04 10:59:48;;;;;;;1.33;1.00;;;31.30;99.90;;;;;;4957510;29;20303;-72
2022/09/04 11:02:22;;;;;;;1.13;1.02;;;31.30;99.90;;;;;;4942841;29;20210;-72
2022/09/04 11:05:19;;;;;;;1.30;1.10;;;31.30;99.90;;;;;;4948291;29;20181;-73
2022/09/04 11:08:08;;;;;;;2.45;0.95;;;31.30;98.70;;;;;;4938275;29;20204;-72
2022/09/04 11:11:03;;;;;;;1.20;0.90;;;31.40;99.70;;;;;;4937940;29;20216;-72
2022/09/04 11:14:06;;;;;;;1.60;1.20;;;31.40;99.10;;;;;;4938040;29;20236;-73
2022/09/04 11:16:51;;;;;;;1.35;0.90;;;31.40;99.60;;;;;;4916287;29;20196;-73
2022/09/04 11:19:54;;;;;;;1.30;1.20;;;31.40;99.20;;;;;;4953807;29;20187;-74
2022/09/04 11:22:44;;;;;;;1.42;1.08;;;31.40;98.10;;;;;;4919037;29;20180;-72
2022/09/04 11:25:41;;;;;;;1.20;1.10;;;31.40;99.00;;;;;;4943730;29;20239;-73
2022/09/04 11:28:18;;;;;;;1.02;0.93;;;31.30;98.80;;;;;;4926877;29;20205;-73
2022/09/04 11:30:47;;;;;;;3.20;1.70;;;31.30;99.00;;;;;;4947230;29;20200;-73
2022/09/04 11:33:51;;;;;;;1.70;1.38;;;31.30;99.00;;;;;;4937430;29;20205;-73
2022/09/04 11:36:19;;;;;;;1.50;1.20;;;31.40;98.30;;;;;;4923021;29;20177;-73
2022/09/04 11:39:03;;;;;;;2.83;1.38;;;31.20;99.50;;;;;;4941171;29;20182;-72
2022/09/04 11:41:44;;;;;;;1.42;1.00;;;31.10;98.90;;;;;;4918152;29;20188;-73
2022/09/04 11:44:46;;;;;;;1.20;1.10;;;30.80;97.80;;;;;;4964274;28;20176;-73
2022/09/04 11:47:46;;;;;;;1.33;1.10;;;30.50;97.20;;;;;;4950335;29;20189;-73
2022/09/04 11:50:31;;;;;;;1.75;1.33;;;30.30;97.80;;;;;;4886166;29;20213;-73
2022/09/04 11:53:21;;;;;;;3.53;1.30;;;30.10;98.70;;;;;;4937123;29;20244;-74
2022/09/04 11:56:04;;;;;;;2.10;1.15;;;30.00;98.60;;;;;;4918628;28;20315;-73
2022/09/04 11:58:39;;;;;;;1.30;1.10;;;29.80;97.80;;;;;;4949471;29;20259;-69
2022/09/04 12:01:41;;;;;;;1.38;1.20;;;29.60;97.90;;;;;;4949389;28;20188;-73
2022/09/04 12:04:27;;;;;;;1.45;1.20;;;29.40;97.60;;;;;;4919456;29;20206;-71
2022/09/04 12:06:58;;;;;;;1.63;1.17;;;29.20;98.50;;;;;;4945788;29;20320;-73
2022/09/04 12:09:43;;;;;;;1.20;1.10;;;29.00;98.40;;;;;;4933601;29;20201;-73
2022/09/04 12:12:21;;;;;;;1.75;1.20;;;28.80;98.00;;;;;;4919229;29;20198;-74
2022/09/04 12:15:01;;;;;;;1.73;1.27;;;28.60;98.30;;;;;;4925516;29;20188;-74
2022/09/04 12:18:14;;;;;;;1.10;1.00;;;28.50;98.60;;;;;;4917612;29;20186;-73
2022/09/04 12:20:57;;;;;;;2.20;1.20;;;28.40;98.70;;;;;;4917428;29;20186;-73
2022/09/04 12:24:06;;;;;;;2.35;1.17;;;28.30;98.80;;;;;;4918065;29;20166;-73
2022/09/04 12:26:47;;;;;;;1.52;1.30;;;28.20;98.70;;;;;;4920805;29;20276;-72
2022/09/04 12:29:31;;;;;;;1.35;1.10;;;28.20;99.20;;;;;;4927216;29;20169;-72
2022/09/04 12:32:35;;;;;;;1.30;1.17;;;28.20;99.40;;;;;;4938182;29;20240;-71
2022/09/04 12:35:13;;;;;;;1.58;1.05;;;28.30;99.80;;;;;;4928422;29;20193;-72
2022/09/04 12:38:23;;;;;;;1.45;1.13;;;28.50;99.90;;;;;;4932561;29;20186;-73
2022/09/04 12:41:07;;;;;;;1.13;0.85;;;28.60;99.50;;;;;;4876139;29;20198;-74
2022/09/04 12:43:56;;;;;;;1.70;1.45;;;28.70;99.10;;;;;;4863876;29;20180;-74
2022/09/04 12:46:36;;;;;;;1.45;1.20;;;28.80;99.30;;;;;;4921045;29;20283;-75
2022/09/04 12:49:39;;;;;;;1.05;0.95;;;28.80;99.20;;;;;;4934816;29;20193;-75
2022/09/04 12:52:26;;;;;;;2.15;1.30;;;28.90;99.10;;;;;;4952199;28;20263;-75
2022/09/04 12:55:09;;;;;;;1.48;1.00;;;29.00;99.30;;;;;;4936261;29;20194;-74
2022/09/04 12:58:06;;;;;;;1.52;1.13;;;29.00;98.90;;;;;;4953829;29;20184;-74
2022/09/04 13:00:43;;;;;;;2.55;0.98;;;29.10;96.50;;;;;;4928742;29;20269;-73
2022/09/04 13:03:16;;;;;;;1.20;1.10;;;29.20;98.60;;;;;;4942920;29;20173;-73
2022/09/04 13:05:47;;;;;;;1.10;0.85;;;29.40;98.50;;;;;;4945267;29;20178;-74
2022/09/04 13:08:36;;;;;;;1.20;1.05;;;29.60;98.70;;;;;;4936958;29;20189;-74
2022/09/04 13:11:17;;;;;;;3.10;1.40;;;29.70;98.80;;;;;;4933369;29;20214;-74
2022/09/04 13:14:15;;;;;;;1.63;1.23;;;29.90;96.50;;;;;;4951226;29;20185;-73
2022/09/04 13:16:43;;;;;;;1.00;0.90;;;30.00;95.80;;;;;;4918923;29;20190;-74
2022/09/04 13:19:16;;;;;;;1.17;1.00;;;30.00;96.60;;;;;;4952318;29;20182;-73
2022/09/04 13:22:13;;;;;;;0.80;0.73;;;30.00;95.30;;;;;;4955500;29;20185;-72
2022/09/04 13:24:58;;;;;;;0.98;0.90;;;30.10;94.90;;;;;;4939590;29;20191;-75
2022/09/04 13:27:48;;;;;;;2.00;1.00;;;30.00;95.10;;;;;;4939144;29;20185;-73
2022/09/04 13:30:23;;;;;;;1.38;0.90;;;30.00;95.00;;;;;;4929242;29;20251;-72
2022/09/04 13:33:03;;;;;;;1.20;0.90;;;29.90;95.20;;;;;;4955847;29;20188;-72
2022/09/04 13:36:09;;;;;;;1.15;0.90;;;29.90;95.50;;;;;;4938036;29;20212;-75
2022/09/04 13:39:06;;;;;;;1.00;0.90;;;29.80;94.40;;;;;;4935074;29;20192;-72
2022/09/04 13:42:10;;;;;;;1.10;1.00;;;29.70;93.70;;;;;;4950994;29;20233;-75
2022/09/04 13:44:54;;;;;;;2.55;1.10;;;29.70;93.90;;;;;;4948590;29;20177;-74
2022/09/04 13:47:29;;;;;;;1.10;0.80;;;29.60;94.30;;;;;;4932757;29;20232;-76
2022/09/04 13:50:07;;;;;;;1.45;1.10;;;29.50;94.00;;;;;;4935902;29;20199;-75
2022/09/04 13:52:41;;;;;;;1.33;0.90;;;29.40;93.90;;;;;;4933293;29;20213;-75
2022/09/04 13:55:18;;;;;;;1.27;1.17;;;29.20;94.10;;;;;;4938516;29;20263;-75
2022/09/04 13:57:56;;;;;;;1.38;1.10;;;29.20;94.60;;;;;;4936885;29;20203;-73
2022/09/04 14:00:23;;;;;;;1.75;0.80;;;29.30;94.90;;;;;;4951459;29;20291;-73
2022/09/04 14:02:55;;;;;;;1.58;1.15;;;29.50;95.70;;;;;;4939537;29;20189;-73
2022/09/04 14:05:30;;;;;;;1.33;1.10;;;29.70;95.50;;;;;;4951102;29;20178;-73
2022/09/04 14:08:01;;;;;;;3.38;3.08;;;30.00;94.40;;;;;;4930925;29;20184;-71
2022/09/04 14:11:19;;;;;;;2.83;2.55;;;30.20;94.70;;;;;;4936411;29;20200;-73
2022/09/04 14:14:10;;;;;;;1.70;1.60;;;30.40;94.20;;;;;;4878430;28;20238;-73
2022/09/04 14:16:44;;;;;;;1.38;1.27;;;30.60;94.10;;;;;;4930063;29;20208;-74
2022/09/04 14:19:31;;;;;;;1.38;1.13;;;30.90;94.00;;;;;;4950907;29;20214;-72
2022/09/04 14:22:10;;;;;;;1.60;1.25;;;31.20;94.10;;;;;;4938516;29;20205;-73
2022/09/04 14:24:58;;;;;;;1.90;1.63;;;31.50;92.90;;;;;;4950539;29;20201;-73
2022/09/04 14:27:45;;;;;;;1.40;1.30;;;31.80;92.50;;;;;;4947464;29;20200;-73
2022/09/04 14:30:21;;;;;;;1.30;1.10;;;32.00;92.00;;;;;;4937463;29;20215;-73
2022/09/04 14:33:19;;;;;;;1.40;1.02;;;32.20;91.50;;;;;;4938229;29;20184;-74